Nezperce, ID

12:26 AM PST on December 20, 2014 (GMT -0800)
ITD Frei Hill ID US | Change Station
CLOSE
Current Station
Personal Weather Station
Location: Ferdinand, ID
Elevation: 3664 ft
Nearby Weather Stations

Elev 3664 ft 46.11 °N, 116.35 °W | Updated 26 minutes ago

Partly Cloudy
Partly Cloudy
34 °F
Feels Like 28 °F
N
7
Wind Variable Wind from ESE
Gusts 9.0 mph

Today
High -- | Low -- °F
--% Chance of Precip.
Yesterday
High -- | Low -- °F
Precip. -- in
7:24 AM 4:01 PM
Waning Crescent, 4% visible
Pressure 30.03 in
Visibility 7.0 miles
Clouds Clear
Windchill 28 °F
Dew Point 33 °F
Humidity 98%
Rainfall 0.22 in
Snow Depth Not available.
UV 0 out of 12
Pollen .10 out of 12
Air Quality Not available.
Flu Activity Not available.
METAR KGIC 200815Z AUTO 00000KT 7SM CLR 00/M01 A3003 RMK AO1 T00001013

More Conditions Fewer Conditions

Pressure 30.03 in
Visibility 7.0 miles
Clouds Clear
Windchill 28 °F
Dew Point 33 °F
Humidity 98%
Rainfall 0.22 in
Snow Depth Not available.
UV 0 out of 12
Pollen .10 out of 12
Air Quality Not available.
Flu Activity Not available.
METAR KGIC 200815Z AUTO 00000KT 7SM CLR 00/M01 A3003 RMK AO1 T00001013

More Conditions Fewer Conditions

10-Day Weather Forecast

Almanac

Astronomy

Dec. 20, 2014 Rise Set
Actual Time
Civil Twilight
Nautical Twilight
Astronomical Twilight
Moon
Length of Visible Light
Length of Day
Tomorrow will be .
, % of the Moon is Illuminated

Today's Extremes

State Highs State Lows

Community

WunderPhotos

Upload Photos

1,779,146 photos uploaded!

WunderBlogs® & News

Nearby

Air Quality

  Air Quality AQ Index Pollutant
Not available.

Snow Depth

Station Depth Elevation

Earthquake Activity

City Distance Mag. Time & Date
Minimum magnitude displayed is 2.5.

Coastal Water Temperatures

Place Temperature

Nearby Weather Stations